createdAt,value
2019-01-03T00:00:26.209Z,3.10
2019-01-03T00:03:15.801Z,3.10
2019-01-03T00:06:04.599Z,3.04
2019-01-03T00:09:12.899Z,3.04
2019-01-03T00:12:12.479Z,3.01
2019-01-03T00:15:15.365Z,3.04
2019-01-03T00:18:14.440Z,2.96
2019-01-03T00:21:07.803Z,2.96
2019-01-03T00:23:58.632Z,3.08
2019-01-03T00:26:54.662Z,3.08
2019-01-03T00:29:47.569Z,3.15
2019-01-03T00:32:46.837Z,3.13
2019-01-03T00:35:45.652Z,3.07
2019-01-03T00:41:26.937Z,3.27
2019-01-03T00:44:15.517Z,3.20
2019-01-03T00:47:23.556Z,3.14
2019-01-03T00:50:25.630Z,3.14
2019-01-03T00:53:24.435Z,3.10
2019-01-03T00:56:13.139Z,2.96
2019-01-03T00:59:21.716Z,2.90
2019-01-03T01:02:13.163Z,2.90
2019-01-03T01:05:18.338Z,3.00
2019-01-03T01:08:26.927Z,2.91
2019-01-03T01:11:19.683Z,2.91
2019-01-03T01:14:21.639Z,2.87
2019-01-03T01:17:10.028Z,2.87
2019-01-03T01:20:02.998Z,2.77
2019-01-03T01:23:05.226Z,2.86
2019-01-03T01:26:13.465Z,2.86
2019-01-03T01:29:06.381Z,2.74
2019-01-03T01:31:59.380Z,2.74
2019-01-03T01:34:47.990Z,2.85
2019-01-03T01:37:44.245Z,2.85
2019-01-03T01:40:49.618Z,2.73
2019-01-03T01:43:36.814Z,2.78
2019-01-03T01:46:25.931Z,2.78
2019-01-03T01:49:31.210Z,2.77
2019-01-03T01:52:19.775Z,2.72
2019-01-03T01:55:09.708Z,2.82
2019-01-03T01:58:09.375Z,2.82
2019-01-03T02:00:58.179Z,2.77
2019-01-03T02:03:57.354Z,2.65
2019-01-03T02:06:45.949Z,2.65
2019-01-03T02:09:49.373Z,2.59
2019-01-03T02:12:42.411Z,2.68
2019-01-03T02:15:35.618Z,2.68
2019-01-03T02:18:33.108Z,2.66
2019-01-03T02:21:23.124Z,2.63
2019-01-03T02:24:13.182Z,2.63
2019-01-03T02:27:18.446Z,2.57
2019-01-03T02:30:11.203Z,2.64
2019-01-03T02:33:14.065Z,2.58
2019-01-03T02:36:02.875Z,2.57
2019-01-03T02:38:51.477Z,2.63
2019-01-03T02:41:41.489Z,2.63
2019-01-03T02:44:30.247Z,2.56
2019-01-03T02:47:29.523Z,2.56
2019-01-03T02:50:13.692Z,2.49
2019-01-03T02:53:03.591Z,2.44
2019-01-03T02:55:52.306Z,2.27
2019-01-03T02:58:42.366Z,2.31
2019-01-03T03:01:32.677Z,2.23
2019-01-03T03:04:21.619Z,2.23
2019-01-03T03:07:09.430Z,2.32
2019-01-03T03:09:55.132Z,2.28
2019-01-03T03:12:51.119Z,2.32
2019-01-03T03:15:48.730Z,2.28
2019-01-03T03:18:37.675Z,2.39
2019-01-03T03:21:39.971Z,2.20
2019-01-03T03:24:33.024Z,2.17
2019-01-03T03:27:22.687Z,2.09
2019-01-03T03:30:11.882Z,2.09
2019-01-03T03:33:00.560Z,2.08
2019-01-03T03:36:09.751Z,2.09
2019-01-03T03:39:09.764Z,2.10
2019-01-03T03:42:05.715Z,2.11
2019-01-03T03:45:12.519Z,2.19
2019-01-03T03:48:04.968Z,2.12
2019-01-03T03:51:08.266Z,2.08
2019-01-03T03:54:04.796Z,2.05
2019-01-03T03:57:01.648Z,2.14
2019-01-03T03:59:58.183Z,2.14
2019-01-03T04:02:48.021Z,2.16
2019-01-03T04:05:53.435Z,2.26
2019-01-03T04:08:40.176Z,2.26
2019-01-03T04:11:30.572Z,2.30
2019-01-03T04:14:19.565Z,2.16
2019-01-03T04:17:16.117Z,2.31
2019-01-03T04:20:09.754Z,2.40
2019-01-03T04:22:58.242Z,2.44
2019-01-03T04:25:57.619Z,2.61
2019-01-03T04:28:48.153Z,2.56
2019-01-03T04:31:34.103Z,2.56
2019-01-03T04:34:24.738Z,2.53
2019-01-03T04:37:17.083Z,2.45
2019-01-03T04:40:07.815Z,2.45
2019-01-03T04:43:02.319Z,2.42
2019-01-03T04:45:54.650Z,2.43
2019-01-03T04:48:54.331Z,2.40
2019-01-03T04:51:50.755Z,2.41
2019-01-03T04:54:50.304Z,2.41
2019-01-03T04:57:39.726Z,2.45
2019-01-03T05:00:29.777Z,2.52
2019-01-03T05:03:18.669Z,2.52
2019-01-03T05:06:17.017Z,2.61
2019-01-03T05:09:13.413Z,2.61
2019-01-03T05:12:10.377Z,2.63
2019-01-03T05:14:59.156Z,2.30
2019-01-03T05:17:50.230Z,2.30
2019-01-03T05:20:44.140Z,2.33
2019-01-03T05:23:31.835Z,2.19
2019-01-03T05:26:30.290Z,2.24
2019-01-03T05:29:23.334Z,2.24
2019-01-03T05:32:24.167Z,2.16
2019-01-03T05:35:33.143Z,2.16
2019-01-03T05:38:38.269Z,2.11
2019-01-03T05:41:31.505Z,2.11
2019-01-03T05:44:21.554Z,2.20
2019-01-03T05:47:11.025Z,2.20
2019-01-03T05:50:00.712Z,2.12
2019-01-03T05:53:00.833Z,2.09
2019-01-03T05:55:50.705Z,2.06
2019-01-03T05:58:42.308Z,2.09
2019-01-03T06:01:34.355Z,2.09
2019-01-03T06:04:34.165Z,2.00
2019-01-03T06:07:39.762Z,2.02
2019-01-03T06:10:33.118Z,2.09
2019-01-03T06:13:22.133Z,1.95
2019-01-03T06:16:12.730Z,1.95
2019-01-03T06:19:09.631Z,1.82
2019-01-03T06:22:00.804Z,1.82
2019-01-03T06:24:50.394Z,1.73
2019-01-03T06:27:39.720Z,1.72
2019-01-03T06:30:42.547Z,1.96
2019-01-03T06:33:33.913Z,1.96
2019-01-03T06:36:22.405Z,1.90
2019-01-03T06:39:31.106Z,1.96
2019-01-03T06:42:21.148Z,2.00
2019-01-03T06:45:11.518Z,2.03
2019-01-03T06:48:01.001Z,2.07
2019-01-03T06:50:51.192Z,2.04
2019-01-03T06:53:40.491Z,2.04
2019-01-03T06:56:29.558Z,2.06
2019-01-03T06:59:22.983Z,2.04
2019-01-03T07:02:23.778Z,2.01
2019-01-03T07:05:28.873Z,2.01
2019-01-03T07:08:20.036Z,2.00
2019-01-03T07:11:26.496Z,2.00
2019-01-03T07:14:17.575Z,1.98
2019-01-03T07:17:10.970Z,2.03
2019-01-03T07:20:03.723Z,2.03
2019-01-03T07:22:53.441Z,2.00
2019-01-03T07:25:42.490Z,2.02
2019-01-03T07:28:32.671Z,2.03
2019-01-03T07:31:28.203Z,2.03
2019-01-03T07:34:24.902Z,2.01
2019-01-03T07:37:10.047Z,2.22
2019-01-03T07:40:07.697Z,2.22
2019-01-03T07:43:16.127Z,2.27
2019-01-03T07:46:06.300Z,2.29
2019-01-03T07:49:02.799Z,2.42
2019-01-03T07:52:00.211Z,2.45
2019-01-03T07:54:49.295Z,2.25
2019-01-03T07:57:38.935Z,2.46
2019-01-03T08:00:24.989Z,2.46
2019-01-03T08:03:18.045Z,2.57
2019-01-03T08:06:18.132Z,2.57
2019-01-03T08:09:16.170Z,2.52
2019-01-03T08:12:13.678Z,2.49
2019-01-03T08:15:04.758Z,2.75
2019-01-03T08:17:53.935Z,2.75
2019-01-03T08:20:43.356Z,2.59
2019-01-03T08:23:26.492Z,2.59
2019-01-03T08:26:23.317Z,2.64
2019-01-03T08:29:13.352Z,2.85
2019-01-03T08:32:03.228Z,2.85
2019-01-03T08:35:08.993Z,2.98
2019-01-03T08:37:58.468Z,2.98
2019-01-03T08:41:04.866Z,2.86
2019-01-03T08:43:55.242Z,2.86
2019-01-03T08:46:46.624Z,2.91
2019-01-03T08:49:36.795Z,2.91
2019-01-03T08:52:32.857Z,3.25
2019-01-03T08:55:21.914Z,3.15
2019-01-03T08:58:26.558Z,3.00
2019-01-03T09:01:15.654Z,2.90
2019-01-03T09:04:08.063Z,2.90
2019-01-03T09:06:57.192Z,2.96
2019-01-03T09:09:49.202Z,3.07
2019-01-03T09:12:58.250Z,3.12
2019-01-03T09:15:47.765Z,3.25
2019-01-03T09:18:36.530Z,3.55
2019-01-03T09:21:25.854Z,4.00
2019-01-03T09:24:22.366Z,4.00
2019-01-03T09:27:12.421Z,3.80
2019-01-03T09:30:08.563Z,3.64
2019-01-03T09:32:53.758Z,3.71
2019-01-03T09:36:03.372Z,3.80
2019-01-03T09:38:54.125Z,3.72
2019-01-03T09:41:43.643Z,3.87
2019-01-03T09:44:44.216Z,3.84
2019-01-03T09:47:15.750Z,3.69
2019-01-03T09:49:49.103Z,3.77
2019-01-03T09:52:20.423Z,3.87
2019-01-03T09:54:52.690Z,3.95
2019-01-03T09:57:24.965Z,3.95
2019-01-03T09:59:57.077Z,4.11
2019-01-03T10:02:29.346Z,4.10
2019-01-03T10:05:02.105Z,4.09
2019-01-03T10:07:33.519Z,4.20
2019-01-03T10:10:07.037Z,4.27
2019-01-03T10:12:39.351Z,4.44
2019-01-03T10:15:12.904Z,4.63
2019-01-03T10:17:45.177Z,4.41
2019-01-03T10:20:16.523Z,4.41
2019-01-03T10:22:49.632Z,4.52
2019-01-03T10:25:22.526Z,4.29
2019-01-03T10:27:54.836Z,4.19
2019-01-03T10:30:27.394Z,4.17
2019-01-03T10:32:58.815Z,4.01
2019-01-03T10:35:30.285Z,4.05
2019-01-03T10:38:04.465Z,4.05
2019-01-03T10:40:35.905Z,4.03
2019-01-03T10:43:08.469Z,4.12
2019-01-03T10:45:40.302Z,4.11
2019-01-03T10:48:12.593Z,3.84
2019-01-03T10:50:44.140Z,3.84
2019-01-03T10:53:16.323Z,3.94
2019-01-03T10:55:47.960Z,3.94
2019-01-03T10:58:21.656Z,3.96
2019-01-03T11:00:54.358Z,4.08
2019-01-03T11:03:26.010Z,4.24
2019-01-03T11:05:58.420Z,4.10
2019-01-03T11:08:30.402Z,4.03
2019-01-03T11:11:02.333Z,4.03
2019-01-03T11:13:33.974Z,4.06
2019-01-03T11:16:07.249Z,4.14
2019-01-03T11:18:39.331Z,4.14
2019-01-03T11:21:11.721Z,4.08
2019-01-03T11:23:43.896Z,4.00
2019-01-03T11:26:15.624Z,4.00
2019-01-03T11:28:47.349Z,4.07
2019-01-03T11:31:19.460Z,4.15
2019-01-03T11:33:52.723Z,4.20
2019-01-03T11:36:24.045Z,4.37
2019-01-03T11:38:56.274Z,4.37
2019-01-03T11:41:27.667Z,4.41
2019-01-03T11:43:58.884Z,4.31
2019-01-03T11:46:30.882Z,4.23
2019-01-03T11:49:02.037Z,4.16
2019-01-03T11:51:33.225Z,4.06
2019-01-03T11:54:06.867Z,4.23
2019-01-03T11:56:39.380Z,4.24
2019-01-03T11:59:10.744Z,4.19
2019-01-03T12:01:41.743Z,4.20
2019-01-03T12:04:12.964Z,4.20
2019-01-03T12:06:44.092Z,4.21
2019-01-03T12:09:15.206Z,4.33
2019-01-03T12:11:46.430Z,4.42
2019-01-03T12:14:17.731Z,4.40
2019-01-03T12:16:48.967Z,4.40
2019-01-03T12:19:20.297Z,4.36
2019-01-03T12:21:51.531Z,4.22
2019-01-03T12:24:22.880Z,4.05
2019-01-03T12:26:54.172Z,4.05
2019-01-03T12:29:25.357Z,4.06
2019-01-03T12:31:56.584Z,4.16
2019-01-03T12:34:27.882Z,4.16
2019-01-03T12:36:58.961Z,4.30
2019-01-03T12:39:30.042Z,4.43
2019-01-03T12:42:01.368Z,4.16
2019-01-03T12:44:32.571Z,4.09
2019-01-03T12:47:03.893Z,3.99
2019-01-03T12:49:35.337Z,3.96
2019-01-03T12:52:06.623Z,3.91
2019-01-03T12:54:37.962Z,4.03
2019-01-03T12:57:08.918Z,4.00
2019-01-03T12:59:40.035Z,4.00
2019-01-03T13:02:11.324Z,3.84
2019-01-03T13:04:42.641Z,3.88
2019-01-03T13:07:13.794Z,3.72
2019-01-03T13:09:45.165Z,3.83
2019-01-03T13:12:16.328Z,3.83
2019-01-03T13:14:47.501Z,3.98
2019-01-03T13:17:18.587Z,3.98
2019-01-03T13:19:49.764Z,4.05
2019-01-03T13:22:20.945Z,3.97
2019-01-03T13:24:52.255Z,3.92
2019-01-03T13:27:23.531Z,3.68
2019-01-03T13:29:54.831Z,3.75
2019-01-03T13:32:26.001Z,3.75
2019-01-03T13:34:59.161Z,3.72
2019-01-03T13:37:30.368Z,3.57
2019-01-03T13:40:01.589Z,3.56
2019-01-03T13:42:32.897Z,3.56
2019-01-03T13:45:04.295Z,3.53
2019-01-03T13:47:35.486Z,3.58
2019-01-03T13:50:08.407Z,3.59
2019-01-03T13:52:39.727Z,3.60
2019-01-03T13:55:10.968Z,3.51
2019-01-03T13:57:42.150Z,3.54
2019-01-03T14:00:13.401Z,3.46
2019-01-03T14:02:44.688Z,3.39
2019-01-03T14:05:16.096Z,3.53
2019-01-03T14:07:47.363Z,3.53
2019-01-03T14:10:18.706Z,3.44
2019-01-03T14:12:49.950Z,3.43
2019-01-03T14:15:21.051Z,3.16
2019-01-03T14:17:52.201Z,3.16
2019-01-03T14:20:23.712Z,3.00
2019-01-03T14:22:56.168Z,3.00
2019-01-03T14:25:27.431Z,3.03
2019-01-03T14:27:58.732Z,2.92
2019-01-03T14:30:29.972Z,2.89
2019-01-03T14:33:02.530Z,2.89
2019-01-03T14:35:33.893Z,2.66
2019-01-03T14:38:05.118Z,2.74
2019-01-03T14:40:36.425Z,2.74
2019-01-03T14:43:07.552Z,2.79
2019-01-03T14:45:38.920Z,2.91
2019-01-03T14:48:10.103Z,2.82
2019-01-03T14:50:41.317Z,2.82
2019-01-03T14:53:12.512Z,2.87
2019-01-03T14:55:43.730Z,2.84
2019-01-03T14:58:14.907Z,2.82
2019-01-03T15:00:46.110Z,2.82
2019-01-03T15:03:17.309Z,2.75
2019-01-03T15:05:48.676Z,2.75
2019-01-03T15:08:19.904Z,2.78
2019-01-03T15:10:51.195Z,2.73
2019-01-03T15:13:23.829Z,2.76
2019-01-03T15:15:55.150Z,2.77
2019-01-03T15:18:26.374Z,2.81
2019-01-03T15:20:57.643Z,2.72
2019-01-03T15:23:30.395Z,2.78
2019-01-03T15:26:01.732Z,2.68
2019-01-03T15:28:32.968Z,2.68
2019-01-03T15:31:04.045Z,2.60
2019-01-03T15:33:35.230Z,2.60
2019-01-03T15:36:06.581Z,2.60
2019-01-03T15:38:37.866Z,2.57
2019-01-03T15:41:09.107Z,2.57
2019-01-03T15:43:40.435Z,2.43
2019-01-03T15:46:11.761Z,2.50
2019-01-03T15:48:43.020Z,2.50
2019-01-03T15:51:14.357Z,2.35
2019-01-03T15:53:45.471Z,2.35
2019-01-03T15:56:16.652Z,2.28
2019-01-03T15:58:47.748Z,2.32
2019-01-03T16:01:18.970Z,2.31
2019-01-03T16:03:50.115Z,2.23
2019-01-03T16:06:21.435Z,2.13
2019-01-03T16:08:52.575Z,2.10
2019-01-03T16:11:23.911Z,1.91
2019-01-03T16:13:54.971Z,1.84
2019-01-03T16:16:29.031Z,1.78
2019-01-03T16:19:00.208Z,1.64
2019-01-03T16:21:31.445Z,1.64
2019-01-03T16:24:02.714Z,1.63
2019-01-03T16:26:34.261Z,1.63
2019-01-03T16:29:05.565Z,1.51
2019-01-03T16:31:36.763Z,1.39
2019-01-03T16:34:07.934Z,1.39
2019-01-03T16:36:39.300Z,1.45
2019-01-03T16:39:10.398Z,1.50
2019-01-03T16:41:41.710Z,1.43
2019-01-03T16:44:13.911Z,1.20
2019-01-03T16:46:45.087Z,1.20
2019-01-03T16:49:16.316Z,1.20
2019-01-03T16:51:47.693Z,1.12
2019-01-03T16:54:18.838Z,1.04
2019-01-03T16:56:50.310Z,1.06
2019-01-03T16:59:23.942Z,0.85
2019-01-03T17:01:55.253Z,0.95
2019-01-03T17:04:26.765Z,0.91
2019-01-03T17:06:58.249Z,0.94
2019-01-03T17:09:29.498Z,0.90
2019-01-03T17:12:00.659Z,0.83
2019-01-03T17:14:31.875Z,0.91
2019-01-03T17:17:03.357Z,0.74
2019-01-03T17:19:34.626Z,0.74
2019-01-03T17:22:05.874Z,0.63
2019-01-03T17:24:37.012Z,0.58
2019-01-03T17:27:11.111Z,0.67
2019-01-03T17:29:42.411Z,0.76
2019-01-03T17:32:13.466Z,0.72
2019-01-03T17:34:44.706Z,0.70
2019-01-03T17:37:16.348Z,0.56
2019-01-03T17:39:47.486Z,0.50
2019-01-03T17:42:18.658Z,0.38
2019-01-03T17:44:49.754Z,0.36
2019-01-03T17:47:21.080Z,0.31
2019-01-03T17:49:52.443Z,0.26
2019-01-03T17:52:23.642Z,0.14
2019-01-03T17:54:56.362Z,0.18
2019-01-03T17:57:30.945Z,0.04
2019-01-03T18:00:01.882Z,0.01
2019-01-03T18:02:33.091Z,-0.01
2019-01-03T18:05:04.510Z,0.02
2019-01-03T18:07:35.497Z,0.03
2019-01-03T18:10:08.433Z,0.02
2019-01-03T18:12:39.989Z,0.12
2019-01-03T18:15:11.302Z,-0.01
2019-01-03T18:17:42.760Z,-0.05
2019-01-03T18:20:16.049Z,0.01
2019-01-03T18:22:47.484Z,0.09
2019-01-03T18:25:18.703Z,0.03
2019-01-03T18:27:49.932Z,0.09
2019-01-03T18:30:21.123Z,0.11
2019-01-03T18:32:52.546Z,0.08
2019-01-03T18:35:24.736Z,0.15
2019-01-03T18:37:56.861Z,0.04
2019-01-03T18:40:28.053Z,0.04
2019-01-03T18:42:59.313Z,0.08
2019-01-03T18:45:30.698Z,0.00
2019-01-03T18:48:02.057Z,0.03
2019-01-03T18:50:34.148Z,-0.01
2019-01-03T18:53:05.455Z,-0.03
2019-01-03T18:55:36.466Z,-0.09
2019-01-03T18:58:07.712Z,-0.14
2019-01-03T19:00:39.185Z,-0.21
2019-01-03T19:03:10.417Z,-0.32
2019-01-03T19:05:41.555Z,-0.27
2019-01-03T19:08:12.956Z,-0.37
2019-01-03T19:10:44.289Z,-0.35
2019-01-03T19:13:15.563Z,-0.26
2019-01-03T19:15:46.915Z,-0.25
2019-01-03T19:18:18.013Z,-0.21
2019-01-03T19:20:49.310Z,-0.28
2019-01-03T19:23:20.651Z,-0.37
2019-01-03T19:25:51.954Z,-0.40
2019-01-03T19:28:25.381Z,-0.42
2019-01-03T19:30:56.126Z,-0.35
2019-01-03T19:33:27.310Z,-0.25
2019-01-03T19:36:00.801Z,-0.22
2019-01-03T19:38:32.010Z,-0.41
2019-01-03T19:41:03.185Z,-0.39
2019-01-03T19:43:34.487Z,-0.39
2019-01-03T19:46:05.563Z,-0.44
2019-01-03T19:48:36.722Z,-0.47
2019-01-03T19:51:08.062Z,-0.54
2019-01-03T19:53:39.436Z,-0.44
2019-01-03T19:56:11.721Z,-0.51
2019-01-03T19:58:43.022Z,-0.64
2019-01-03T20:01:14.195Z,-0.60
2019-01-03T20:03:45.373Z,-0.51
2019-01-03T20:06:16.635Z,-0.48
2019-01-03T20:08:47.771Z,-0.34
2019-01-03T20:11:19.143Z,-0.42
2019-01-03T20:13:50.676Z,-0.44
2019-01-03T20:16:22.027Z,-0.39
2019-01-03T20:18:53.231Z,-0.27
2019-01-03T20:21:24.539Z,-0.23
2019-01-03T20:23:55.825Z,-0.29
2019-01-03T20:26:27.131Z,-0.27
2019-01-03T20:28:59.532Z,-0.36
2019-01-03T20:31:30.914Z,-0.66
2019-01-03T20:34:02.121Z,-0.46
2019-01-03T20:36:34.354Z,-0.46
2019-01-03T20:39:06.312Z,-0.44
2019-01-03T20:41:37.744Z,-0.53
2019-01-03T20:44:09.032Z,-0.54
2019-01-03T20:46:40.144Z,-0.50
2019-01-03T20:49:11.407Z,-0.42
2019-01-03T20:51:42.549Z,-0.51
2019-01-03T20:54:13.934Z,-0.43
2019-01-03T20:56:45.130Z,-0.36
2019-01-03T20:59:16.361Z,-0.27
2019-01-03T21:01:47.691Z,-0.27
2019-01-03T21:04:18.972Z,-0.30
2019-01-03T21:06:50.222Z,-0.31
2019-01-03T21:09:21.476Z,-0.25
2019-01-03T21:11:52.903Z,-0.33
2019-01-03T21:14:24.308Z,-0.43
2019-01-03T21:16:57.047Z,-0.37
2019-01-03T21:19:28.410Z,-0.30
2019-01-03T21:21:59.690Z,-0.30
2019-01-03T21:24:33.137Z,-0.37
2019-01-03T21:27:04.359Z,-0.51
2019-01-03T21:29:35.709Z,-0.57
2019-01-03T21:32:09.362Z,-0.49
2019-01-03T21:34:40.590Z,-0.52
2019-01-03T21:37:11.914Z,-0.49
2019-01-03T21:39:43.214Z,-0.45
2019-01-03T21:42:14.591Z,-0.56
2019-01-03T21:44:45.936Z,-0.52
2019-01-03T21:47:18.353Z,-0.48
2019-01-03T21:49:49.557Z,-0.42
2019-01-03T21:52:20.664Z,-0.40
2019-01-03T21:54:52.012Z,-0.35
2019-01-03T21:57:23.457Z,-0.37
2019-01-03T21:59:54.630Z,-0.44
2019-01-03T22:02:25.742Z,-0.46
2019-01-03T22:04:57.123Z,-0.47
2019-01-03T22:07:28.384Z,-0.42
2019-01-03T22:09:59.546Z,-0.48
2019-01-03T22:12:30.850Z,-0.57
2019-01-03T22:15:01.803Z,-0.56
2019-01-03T22:17:33.214Z,-0.50
2019-01-03T22:20:04.653Z,-0.57
2019-01-03T22:22:37.092Z,-0.61
2019-01-03T22:25:08.448Z,-0.62
2019-01-03T22:27:39.610Z,-0.56
2019-01-03T22:30:13.223Z,-0.52
2019-01-03T22:32:44.374Z,-0.58
2019-01-03T22:35:15.438Z,-0.57
2019-01-03T22:37:46.704Z,-0.53
2019-01-03T22:40:17.985Z,-0.59
2019-01-03T22:42:50.330Z,-0.65
2019-01-03T22:45:23.198Z,-0.73
2019-01-03T22:47:54.361Z,-0.79
2019-01-03T22:50:25.681Z,-0.76
2019-01-03T22:52:56.938Z,-0.74
2019-01-03T22:55:28.243Z,-0.68
2019-01-03T22:57:59.530Z,-0.70
2019-01-03T23:00:40.189Z,-0.74
2019-01-03T23:03:11.528Z,-0.81
2019-01-03T23:05:44.022Z,-0.79
2019-01-03T23:08:15.016Z,-0.83
2019-01-03T23:10:46.404Z,-0.87
2019-01-03T23:13:17.548Z,-0.80
2019-01-03T23:15:50.513Z,-0.90
2019-01-03T23:18:21.710Z,-0.96
2019-01-03T23:20:54.157Z,-0.93
2019-01-03T23:23:25.363Z,-0.94
2019-01-03T23:25:56.746Z,-1.05
2019-01-03T23:28:27.976Z,-0.96
2019-01-03T23:30:59.006Z,-0.95
2019-01-03T23:33:30.247Z,-1.07
2019-01-03T23:36:02.724Z,-1.05
2019-01-03T23:38:33.870Z,-1.10
2019-01-03T23:41:05.025Z,-1.07
2019-01-03T23:43:36.294Z,-1.05
2019-01-03T23:46:07.590Z,-1.06
2019-01-03T23:48:38.925Z,-1.10
2019-01-03T23:51:10.222Z,-1.11
2019-01-03T23:53:41.606Z,-1.11
2019-01-03T23:56:12.944Z,-1.11
2019-01-03T23:58:44.206Z,-1.14
